sensor_id;sensor_type;location;lat;lon;timestamp;pressure;altitude;pressure_sealevel;temperature
64184;BMP280;50485;49.768;8.636;2022-08-19T00:02:19;99873.25;;;25.90
64184;BMP280;50485;49.768;8.636;2022-08-19T00:04:44;99878.72;;;25.90
64184;BMP280;50485;49.768;8.636;2022-08-19T00:07:11;99871.66;;;25.89
64184;BMP280;50485;49.768;8.636;2022-08-19T00:09:37;99882.66;;;25.89
64184;BMP280;50485;49.768;8.636;2022-08-19T00:12:02;99859.91;;;25.89
64184;BMP280;50485;49.768;8.636;2022-08-19T00:14:28;99866.19;;;25.89
64184;BMP280;50485;49.768;8.636;2022-08-19T00:16:56;99868.91;;;25.89
64184;BMP280;50485;49.768;8.636;2022-08-19T00:19:22;99866.19;;;25.89
64184;BMP280;50485;49.768;8.636;2022-08-19T00:21:47;99853.69;;;25.88
64184;BMP280;50485;49.768;8.636;2022-08-19T00:24:13;99850.16;;;25.88
64184;BMP280;50485;49.768;8.636;2022-08-19T00:26:39;99850.16;;;25.88
64184;BMP280;50485;49.768;8.636;2022-08-19T00:29:06;99836.81;;;25.86
64184;BMP280;50485;49.768;8.636;2022-08-19T00:31:31;99844.28;;;25.86
64184;BMP280;50485;49.768;8.636;2022-08-19T00:33:57;99845.06;;;25.86
64184;BMP280;50485;49.768;8.636;2022-08-19T00:36:22;99842.00;;;25.84
64184;BMP280;50485;49.768;8.636;2022-08-19T00:38:48;99834.53;;;25.85
64184;BMP280;50485;49.768;8.636;2022-08-19T00:41:15;99826.28;;;25.85
64184;BMP280;50485;49.768;8.636;2022-08-19T00:43:42;99825.53;;;25.84
64184;BMP280;50485;49.768;8.636;2022-08-19T00:46:07;99815.75;;;25.83
64184;BMP280;50485;49.768;8.636;2022-08-19T00:48:33;99818.47;;;25.83
64184;BMP280;50485;49.768;8.636;2022-08-19T00:50:58;99815.38;;;25.81
64184;BMP280;50485;49.768;8.636;2022-08-19T00:53:26;99815.38;;;25.81
64184;BMP280;50485;49.768;8.636;2022-08-19T00:55:52;99805.94;;;25.82
64184;BMP280;50485;49.768;8.636;2022-08-19T00:58:19;99811.88;;;25.81
64184;BMP280;50485;49.768;8.636;2022-08-19T01:00:46;99815.38;;;25.81
64184;BMP280;50485;49.768;8.636;2022-08-19T01:03:13;99825.59;;;25.81
64184;BMP280;50485;49.768;8.636;2022-08-19T01:05:39;99825.22;;;25.79
64184;BMP280;50485;49.768;8.636;2022-08-19T01:08:06;99828.72;;;25.79
64184;BMP280;50485;49.768;8.636;2022-08-19T01:10:35;99824.47;;;25.78
64184;BMP280;50485;49.768;8.636;2022-08-19T01:13:02;99820.50;;;25.79
64184;BMP280;50485;49.768;8.636;2022-08-19T01:15:35;99821.72;;;25.78
64184;BMP280;50485;49.768;8.636;2022-08-19T01:18:07;99831.16;;;25.77
64184;BMP280;50485;49.768;8.636;2022-08-19T01:20:33;99820.56;;;25.76
64184;BMP280;50485;49.768;8.636;2022-08-19T01:22:59;99823.31;;;25.76
64184;BMP280;50485;49.768;8.636;2022-08-19T01:25:32;99817.81;;;25.76
64184;BMP280;50485;49.768;8.636;2022-08-19T01:27:59;99822.53;;;25.75
64184;BMP280;50485;49.768;8.636;2022-08-19T01:30:27;99808.81;;;25.75
64184;BMP280;50485;49.768;8.636;2022-08-19T01:32:53;99817.81;;;25.76
64184;BMP280;50485;49.768;8.636;2022-08-19T01:35:18;99826.06;;;25.76
64184;BMP280;50485;49.768;8.636;2022-08-19T01:37:49;99828.47;;;25.73
64184;BMP280;50485;49.768;8.636;2022-08-19T01:40:17;99831.28;;;25.70
64184;BMP280;50485;49.768;8.636;2022-08-19T01:42:45;99836.72;;;25.73
64184;BMP280;50485;49.768;8.636;2022-08-19T01:45:10;99815.16;;;25.72
64184;BMP280;50485;49.768;8.636;2022-08-19T01:47:35;99819.47;;;25.73
64184;BMP280;50485;49.768;8.636;2022-08-19T01:50:01;99826.94;;;25.72
64184;BMP280;50485;49.768;8.636;2022-08-19T01:52:26;99832.06;;;25.70
64184;BMP280;50485;49.768;8.636;2022-08-19T01:54:52;99842.25;;;25.70
64184;BMP280;50485;49.768;8.636;2022-08-19T01:57:17;99840.72;;;25.69
64184;BMP280;50485;49.768;8.636;2022-08-19T01:59:43;99831.28;;;25.70
64184;BMP280;50485;49.768;8.636;2022-08-19T02:02:09;99831.28;;;25.70
64184;BMP280;50485;49.768;8.636;2022-08-19T02:04:35;99835.22;;;25.69
64184;BMP280;50485;49.768;8.636;2022-08-19T02:07:00;99837.97;;;25.69
64184;BMP280;50485;49.768;8.636;2022-08-19T02:09:26;99843.47;;;25.69
64184;BMP280;50485;49.768;8.636;2022-08-19T02:11:51;99845.00;;;25.70
64184;BMP280;50485;49.768;8.636;2022-08-19T02:14:16;99841.13;;;25.67
64184;BMP280;50485;49.768;8.636;2022-08-19T02:16:41;99842.31;;;25.66
64184;BMP280;50485;49.768;8.636;2022-08-19T02:19:07;99845.41;;;25.68
64184;BMP280;50485;49.768;8.636;2022-08-19T02:21:32;99852.94;;;25.64
64184;BMP280;50485;49.768;8.636;2022-08-19T02:23:58;99851.72;;;25.65
64184;BMP280;50485;49.768;8.636;2022-08-19T02:26:23;99861.19;;;25.64
64184;BMP280;50485;49.768;8.636;2022-08-19T02:28:49;99847.03;;;25.66
64184;BMP280;50485;49.768;8.636;2022-08-19T02:31:16;99848.22;;;25.65
64184;BMP280;50485;49.768;8.636;2022-08-19T02:33:42;99838.81;;;25.66
64184;BMP280;50485;49.768;8.636;2022-08-19T02:36:07;99824.28;;;25.65
64184;BMP280;50485;49.768;8.636;2022-08-19T02:38:32;99829.00;;;25.65
64184;BMP280;50485;49.768;8.636;2022-08-19T02:40:59;99830.22;;;25.64
64184;BMP280;50485;49.768;8.636;2022-08-19T02:43:26;99840.44;;;25.63
64184;BMP280;50485;49.768;8.636;2022-08-19T02:45:52;99839.66;;;25.63
64184;BMP280;50485;49.768;8.636;2022-08-19T02:48:18;99845.47;;;25.65
64184;BMP280;50485;49.768;8.636;2022-08-19T02:50:43;99836.91;;;25.63
64184;BMP280;50485;49.768;8.636;2022-08-19T02:53:09;99838.47;;;25.64
64184;BMP280;50485;49.768;8.636;2022-08-19T02:55:34;99837.31;;;25.61
64184;BMP280;50485;49.768;8.636;2022-08-19T02:57:59;99835.78;;;25.60
64184;BMP280;50485;49.768;8.636;2022-08-19T03:00:25;99840.06;;;25.61
64184;BMP280;50485;49.768;8.636;2022-08-19T03:02:50;99841.69;;;25.59
64184;BMP280;50485;49.768;8.636;2022-08-19T03:05:16;99849.91;;;25.59
64184;BMP280;50485;49.768;8.636;2022-08-19T03:07:41;99845.63;;;25.58
64184;BMP280;50485;49.768;8.636;2022-08-19T03:10:06;99857.78;;;25.57
64184;BMP280;50485;49.768;8.636;2022-08-19T03:12:34;99858.56;;;25.57
64184;BMP280;50485;49.768;8.636;2022-08-19T03:15:00;99861.31;;;25.57
64184;BMP280;50485;49.768;8.636;2022-08-19T03:17:25;99858.56;;;25.57
64184;BMP280;50485;49.768;8.636;2022-08-19T03:19:50;99847.25;;;25.55
64184;BMP280;50485;49.768;8.636;2022-08-19T03:22:16;99849.56;;;25.57
64184;BMP280;50485;49.768;8.636;2022-08-19T03:24:41;99844.91;;;25.54
64184;BMP280;50485;49.768;8.636;2022-08-19T03:27:06;99842.59;;;25.52
64184;BMP280;50485;49.768;8.636;2022-08-19T03:29:32;99837.88;;;25.53
64184;BMP280;50485;49.768;8.636;2022-08-19T03:31:58;99839.06;;;25.52
64184;BMP280;50485;49.768;8.636;2022-08-19T03:34:26;99839.50;;;25.50
64184;BMP280;50485;49.768;8.636;2022-08-19T03:36:51;99838.72;;;25.50
64184;BMP280;50485;49.768;8.636;2022-08-19T03:39:17;99847.72;;;25.50
64184;BMP280;50485;49.768;8.636;2022-08-19T03:41:43;99850.88;;;25.49
64184;BMP280;50485;49.768;8.636;2022-08-19T03:44:09;99853.34;;;25.43
64184;BMP280;50485;49.768;8.636;2022-08-19T03:46:34;99856.06;;;25.43
64184;BMP280;50485;49.768;8.636;2022-08-19T03:49:01;99863.84;;;25.45
64184;BMP280;50485;49.768;8.636;2022-08-19T03:51:34;99858.38;;;25.45
64184;BMP280;50485;49.768;8.636;2022-08-19T03:54:00;99866.28;;;25.43
64184;BMP280;50485;49.768;8.636;2022-08-19T03:56:26;99867.06;;;25.43
64184;BMP280;50485;49.768;8.636;2022-08-19T03:58:52;99860.78;;;25.43
64184;BMP280;50485;49.768;8.636;2022-08-19T04:01:19;99859.25;;;25.42
64184;BMP280;50485;49.768;8.636;2022-08-19T04:03:45;99866.66;;;25.41
64184;BMP280;50485;49.768;8.636;2022-08-19T04:08:37;99883.56;;;25.39
64184;BMP280;50485;49.768;8.636;2022-08-19T04:11:06;99877.31;;;25.39
64184;BMP280;50485;49.768;8.636;2022-08-19T04:13:31;99878.91;;;25.36
64184;BMP280;50485;49.768;8.636;2022-08-19T04:15:56;99874.16;;;25.40
64184;BMP280;50485;49.768;8.636;2022-08-19T04:18:21;99865.22;;;25.36
64184;BMP280;50485;49.768;8.636;2022-08-19T04:20:47;99867.19;;;25.36
64184;BMP280;50485;49.768;8.636;2022-08-19T04:23:13;99867.59;;;25.34
64184;BMP280;50485;49.768;8.636;2022-08-19T04:25:39;99863.31;;;25.33
64184;BMP280;50485;49.768;8.636;2022-08-19T04:28:05;99860.91;;;25.35
64184;BMP280;50485;49.768;8.636;2022-08-19T04:30:30;99870.34;;;25.34
64184;BMP280;50485;49.768;8.636;2022-08-19T04:32:55;99867.59;;;25.34
64184;BMP280;50485;49.768;8.636;2022-08-19T04:35:20;99870.75;;;25.33
64184;BMP280;50485;49.768;8.636;2022-08-19T04:37:45;99863.78;;;25.28
64184;BMP280;50485;49.768;8.636;2022-08-19T04:40:11;99866.09;;;25.30
64184;BMP280;50485;49.768;8.636;2022-08-19T04:42:54;99873.91;;;25.31
64184;BMP280;50485;49.768;8.636;2022-08-19T04:45:21;99875.09;;;25.30
64184;BMP280;50485;49.768;8.636;2022-08-19T04:47:46;99880.59;;;25.30
64184;BMP280;50485;49.768;8.636;2022-08-19T04:50:12;99869.19;;;25.32
64184;BMP280;50485;49.768;8.636;2022-08-19T04:52:38;99869.97;;;25.32
64184;BMP280;50485;49.768;8.636;2022-08-19T04:55:07;99864.91;;;25.31
64184;BMP280;50485;49.768;8.636;2022-08-19T04:57:32;99868.00;;;25.33
64184;BMP280;50485;49.768;8.636;2022-08-19T04:59:57;99869.97;;;25.32
64184;BMP280;50485;49.768;8.636;2022-08-19T05:02:23;99869.97;;;25.32
64184;BMP280;50485;49.768;8.636;2022-08-19T05:04:49;99869.97;;;25.32
64184;BMP280;50485;49.768;8.636;2022-08-19T05:07:14;99875.47;;;25.32
64184;BMP280;50485;49.768;8.636;2022-08-19T05:09:39;99882.84;;;25.35
64184;BMP280;50485;49.768;8.636;2022-08-19T05:12:05;99889.88;;;25.36
64184;BMP280;50485;49.768;8.636;2022-08-19T05:14:31;99883.63;;;25.36
64184;BMP280;50485;49.768;8.636;2022-08-19T05:16:56;99883.22;;;25.37
64184;BMP280;50485;49.768;8.636;2022-08-19T05:19:21;99883.22;;;25.37
64184;BMP280;50485;49.768;8.636;2022-08-19T05:22:05;99884.34;;;25.40
64184;BMP280;50485;49.768;8.636;2022-08-19T05:24:49;99887.88;;;25.40
64184;BMP280;50485;49.768;8.636;2022-08-19T05:27:14;99897.66;;;25.42
64184;BMP280;50485;49.768;8.636;2022-08-19T05:29:39;99908.63;;;25.42
64184;BMP280;50485;49.768;8.636;2022-08-19T05:32:05;99900.03;;;25.39
64184;BMP280;50485;49.768;8.636;2022-08-19T05:34:30;99901.56;;;25.40
64184;BMP280;50485;49.768;8.636;2022-08-19T05:36:58;99903.13;;;25.42
64184;BMP280;50485;49.768;8.636;2022-08-19T05:39:25;99892.16;;;25.42
64184;BMP280;50485;49.768;8.636;2022-08-19T05:41:55;99889.00;;;25.43
64184;BMP280;50485;49.768;8.636;2022-08-19T05:44:22;99889.00;;;25.43
64184;BMP280;50485;49.768;8.636;2022-08-19T05:46:48;99909.34;;;25.46
64184;BMP280;50485;49.768;8.636;2022-08-19T05:49:13;99914.34;;;25.51
64184;BMP280;50485;49.768;8.636;2022-08-19T05:51:40;99922.09;;;25.56
64184;BMP280;50485;49.768;8.636;2022-08-19T05:54:05;99915.66;;;25.66
64184;BMP280;50485;49.768;8.636;2022-08-19T05:56:32;99913.81;;;25.79
64184;BMP280;50485;49.768;8.636;2022-08-19T05:58:57;99911.38;;;25.85
64184;BMP280;50485;49.768;8.636;2022-08-19T06:01:23;99914.44;;;25.90
64184;BMP280;50485;49.768;8.636;2022-08-19T06:03:49;99929.53;;;25.98
64184;BMP280;50485;49.768;8.636;2022-08-19T06:06:15;99940.78;;;26.08
64184;BMP280;50485;49.768;8.636;2022-08-19T06:08:40;99945.34;;;26.14
64184;BMP280;50485;49.768;8.636;2022-08-19T06:11:11;99940.13;;;26.20
64184;BMP280;50485;49.768;8.636;2022-08-19T06:13:37;99949.81;;;26.28
64184;BMP280;50485;49.768;8.636;2022-08-19T06:16:03;99947.66;;;26.35
64184;BMP280;50485;49.768;8.636;2022-08-19T06:18:29;99951.88;;;26.40
64184;BMP280;50485;49.768;8.636;2022-08-19T06:20:54;99952.50;;;26.48
64184;BMP280;50485;49.768;8.636;2022-08-19T06:23:19;99964.50;;;26.57
64184;BMP280;50485;49.768;8.636;2022-08-19T06:25:45;99961.22;;;26.62
64184;BMP280;50485;49.768;8.636;2022-08-19T06:28:10;99973.97;;;26.72
64184;BMP280;50485;49.768;8.636;2022-08-19T06:30:35;99975.78;;;26.79
64184;BMP280;50485;49.768;8.636;2022-08-19T06:33:01;99963.63;;;26.80
64184;BMP280;50485;49.768;8.636;2022-08-19T06:35:27;99963.84;;;26.86
64184;BMP280;50485;49.768;8.636;2022-08-19T06:37:54;99958.19;;;26.93
64184;BMP280;50485;49.768;8.636;2022-08-19T06:40:19;99969.78;;;27.00
64184;BMP280;50485;49.768;8.636;2022-08-19T06:42:44;99971.53;;;27.11
64184;BMP280;50485;49.768;8.636;2022-08-19T06:45:10;99973.53;;;27.26
64184;BMP280;50485;49.768;8.636;2022-08-19T06:47:35;99980.66;;;27.40
64184;BMP280;50485;49.768;8.636;2022-08-19T06:50:01;99981.53;;;27.53
64184;BMP280;50485;49.768;8.636;2022-08-19T06:52:27;99981.75;;;27.59
64184;BMP280;50485;49.768;8.636;2022-08-19T06:54:53;99984.41;;;27.62
64184;BMP280;50485;49.768;8.636;2022-08-19T06:57:21;99981.75;;;27.59
64184;BMP280;50485;49.768;8.636;2022-08-19T06:59:46;99981.06;;;27.55
64184;BMP280;50485;49.768;8.636;2022-08-19T07:02:11;99988.75;;;27.47
64184;BMP280;50485;49.768;8.636;2022-08-19T07:04:37;99993.09;;;27.45
64184;BMP280;50485;49.768;8.636;2022-08-19T07:07:12;99990.34;;;27.45
64184;BMP280;50485;49.768;8.636;2022-08-19T07:09:38;99987.28;;;27.43
64184;BMP280;50485;49.768;8.636;2022-08-19T07:12:04;100002.22;;;27.42
64184;BMP280;50485;49.768;8.636;2022-08-19T07:14:29;99991.59;;;27.44
64184;BMP280;50485;49.768;8.636;2022-08-19T07:16:55;99994.66;;;27.46
64184;BMP280;50485;49.768;8.636;2022-08-19T07:19:21;99988.28;;;27.49
64184;BMP280;50485;49.768;8.636;2022-08-19T07:21:50;99989.78;;;27.53
64184;BMP280;50485;49.768;8.636;2022-08-19T07:24:18;99983.34;;;27.60
64184;BMP280;50485;49.768;8.636;2022-08-19T07:26:44;99978.41;;;27.67
64184;BMP280;50485;49.768;8.636;2022-08-19T07:29:10;99981.06;;;27.71
64184;BMP280;50485;49.768;8.636;2022-08-19T07:31:36;99988.09;;;27.88
64184;BMP280;50485;49.768;8.636;2022-08-19T07:34:03;99989.25;;;28.03
64184;BMP280;50485;49.768;8.636;2022-08-19T07:36:32;99988.31;;;28.23
64184;BMP280;50485;49.768;8.636;2022-08-19T07:38:58;99982.81;;;28.35
64184;BMP280;50485;49.768;8.636;2022-08-19T07:41:25;99984.41;;;28.49
64184;BMP280;50485;49.768;8.636;2022-08-19T07:43:50;99988.41;;;28.61
64184;BMP280;50485;49.768;8.636;2022-08-19T07:46:16;99990.47;;;28.69
64184;BMP280;50485;49.768;8.636;2022-08-19T07:48:43;99995.78;;;28.77
64184;BMP280;50485;49.768;8.636;2022-08-19T07:51:10;99987.06;;;28.91
64184;BMP280;50485;49.768;8.636;2022-08-19T07:53:36;99984.75;;;29.02
64184;BMP280;50485;49.768;8.636;2022-08-19T07:56:07;99986.41;;;28.99
64184;BMP280;50485;49.768;8.636;2022-08-19T07:58:34;99988.06;;;29.09
64184;BMP280;50485;49.768;8.636;2022-08-19T08:01:00;99985.72;;;29.21
64184;BMP280;50485;49.768;8.636;2022-08-19T08:03:26;99976.03;;;29.03
64184;BMP280;50485;49.768;8.636;2022-08-19T08:06:11;99976.25;;;28.84
64184;BMP280;50485;49.768;8.636;2022-08-19T08:08:55;99977.00;;;28.84
64184;BMP280;50485;49.768;8.636;2022-08-19T08:11:39;99978.22;;;28.83
64184;BMP280;50485;49.768;8.636;2022-08-19T08:14:05;99977.47;;;28.83
64184;BMP280;50485;49.768;8.636;2022-08-19T08:16:33;99986.97;;;28.82
64184;BMP280;50485;49.768;8.636;2022-08-19T08:18:58;99986.50;;;28.83
64184;BMP280;50485;49.768;8.636;2022-08-19T08:21:24;99992.50;;;28.82
64184;BMP280;50485;49.768;8.636;2022-08-19T08:23:49;99983.00;;;28.83
64184;BMP280;50485;49.768;8.636;2022-08-19T08:26:16;99983.63;;;28.87
64184;BMP280;50485;49.768;8.636;2022-08-19T08:28:42;99980.38;;;28.92
64184;BMP280;50485;49.768;8.636;2022-08-19T08:31:07;99970.94;;;28.89
64184;BMP280;50485;49.768;8.636;2022-08-19T08:33:32;99966.31;;;28.99
64184;BMP280;50485;49.768;8.636;2022-08-19T08:35:57;99972.50;;;29.03
64184;BMP280;50485;49.768;8.636;2022-08-19T08:38:22;99984.19;;;28.94
64184;BMP280;50485;49.768;8.636;2022-08-19T08:40:49;99987.41;;;28.93
64184;BMP280;50485;49.768;8.636;2022-08-19T08:45:47;99980.13;;;28.99
64184;BMP280;50485;49.768;8.636;2022-08-19T08:48:18;99977.69;;;29.01
64184;BMP280;50485;49.768;8.636;2022-08-19T08:50:45;99979.72;;;29.22
64184;BMP280;50485;49.768;8.636;2022-08-19T08:53:12;99976.56;;;29.24
64184;BMP280;50485;49.768;8.636;2022-08-19T08:55:40;99988.47;;;29.33
64184;BMP280;50485;49.768;8.636;2022-08-19T08:58:07;99974.97;;;29.35
64184;BMP280;50485;49.768;8.636;2022-08-19T09:00:38;99975.47;;;29.21
64184;BMP280;50485;49.768;8.636;2022-08-19T09:03:21;99975.13;;;29.19
64184;BMP280;50485;49.768;8.636;2022-08-19T09:06:01;99978.50;;;29.36
64184;BMP280;50485;49.768;8.636;2022-08-19T09:08:33;99988.41;;;29.81
64184;BMP280;50485;49.768;8.636;2022-08-19T09:11:08;99973.34;;;29.60
64184;BMP280;50485;49.768;8.636;2022-08-19T09:13:38;99970.53;;;29.51
64184;BMP280;50485;49.768;8.636;2022-08-19T09:16:07;99972.09;;;29.39
64184;BMP280;50485;49.768;8.636;2022-08-19T09:18:44;99981.28;;;29.36
64184;BMP280;50485;49.768;8.636;2022-08-19T09:21:10;99983.34;;;29.44
64184;BMP280;50485;49.768;8.636;2022-08-19T09:23:36;99993.31;;;29.64
64184;BMP280;50485;49.768;8.636;2022-08-19T09:26:06;99980.59;;;29.44
64184;BMP280;50485;49.768;8.636;2022-08-19T09:28:31;99985.59;;;29.24
64184;BMP280;50485;49.768;8.636;2022-08-19T09:30:56;99977.34;;;29.24
64184;BMP280;50485;49.768;8.636;2022-08-19T09:33:21;99978.53;;;29.23
64184;BMP280;50485;49.768;8.636;2022-08-19T09:35:47;99978.31;;;29.30
64184;BMP280;50485;49.768;8.636;2022-08-19T09:38:12;99978.22;;;29.21
64184;BMP280;50485;49.768;8.636;2022-08-19T09:40:37;99971.69;;;29.15
64184;BMP280;50485;49.768;8.636;2022-08-19T09:43:03;99980.41;;;29.14
64184;BMP280;50485;49.768;8.636;2022-08-19T09:45:29;99981.41;;;29.20
64184;BMP280;50485;49.768;8.636;2022-08-19T09:47:55;99981.97;;;29.27
64184;BMP280;50485;49.768;8.636;2022-08-19T09:50:21;99973.03;;;29.23
64184;BMP280;50485;49.768;8.636;2022-08-19T09:52:47;99972.94;;;29.49
64184;BMP280;50485;49.768;8.636;2022-08-19T09:55:12;99976.53;;;29.71
64184;BMP280;50485;49.768;8.636;2022-08-19T09:57:38;99972.41;;;29.54
64184;BMP280;50485;49.768;8.636;2022-08-19T10:00:04;99970.94;;;29.49
64184;BMP280;50485;49.768;8.636;2022-08-19T10:02:29;99972.06;;;29.52
64184;BMP280;50485;49.768;8.636;2022-08-19T10:04:55;99965.41;;;29.27
64184;BMP280;50485;49.768;8.636;2022-08-19T10:07:39;99971.03;;;29.24
64184;BMP280;50485;49.768;8.636;2022-08-19T10:10:04;99968.84;;;29.19
64184;BMP280;50485;49.768;8.636;2022-08-19T10:12:31;99970.16;;;29.14
64184;BMP280;50485;49.768;8.636;2022-08-19T10:14:56;99965.22;;;29.09
64184;BMP280;50485;49.768;8.636;2022-08-19T10:17:21;99972.63;;;29.12
64184;BMP280;50485;49.768;8.636;2022-08-19T10:19:47;99966.06;;;29.19
64184;BMP280;50485;49.768;8.636;2022-08-19T10:22:12;99968.06;;;29.18
64184;BMP280;50485;49.768;8.636;2022-08-19T10:24:38;99966.84;;;29.19
64184;BMP280;50485;49.768;8.636;2022-08-19T10:27:04;99970.16;;;29.14
64184;BMP280;50485;49.768;8.636;2022-08-19T10:29:30;99962.88;;;29.07
64184;BMP280;50485;49.768;8.636;2022-08-19T10:32:03;99970.53;;;29.03
64184;BMP280;50485;49.768;8.636;2022-08-19T10:34:30;99967.88;;;29.00
64184;BMP280;50485;49.768;8.636;2022-08-19T10:36:56;99980.19;;;29.08
64184;BMP280;50485;49.768;8.636;2022-08-19T10:39:22;99965.94;;;29.22
64184;BMP280;50485;49.768;8.636;2022-08-19T10:41:47;99970.72;;;29.22
64184;BMP280;50485;49.768;8.636;2022-08-19T10:44:12;99964.84;;;29.20
64184;BMP280;50485;49.768;8.636;2022-08-19T10:46:39;99972.59;;;29.25
64184;BMP280;50485;49.768;8.636;2022-08-19T10:49:07;99963.16;;;29.22
64184;BMP280;50485;49.768;8.636;2022-08-19T10:51:32;99949.72;;;29.24
64184;BMP280;50485;49.768;8.636;2022-08-19T10:54:16;99942.34;;;29.21
64184;BMP280;50485;49.768;8.636;2022-08-19T10:56:41;99950.19;;;29.23
64184;BMP280;50485;49.768;8.636;2022-08-19T10:59:16;99943.84;;;29.22
64184;BMP280;50485;49.768;8.636;2022-08-19T11:01:42;99944.53;;;29.26
64184;BMP280;50485;49.768;8.636;2022-08-19T11:04:08;99939.91;;;29.23
64184;BMP280;50485;49.768;8.636;2022-08-19T11:06:36;99938.34;;;29.22
64184;BMP280;50485;49.768;8.636;2022-08-19T11:09:03;99934.28;;;29.14
64184;BMP280;50485;49.768;8.636;2022-08-19T11:11:28;99929.66;;;29.11
64184;BMP280;50485;49.768;8.636;2022-08-19T11:13:53;99931.00;;;29.06
64184;BMP280;50485;49.768;8.636;2022-08-19T11:16:19;99923.72;;;29.13
64184;BMP280;50485;49.768;8.636;2022-08-19T11:18:46;99917.31;;;29.16
64184;BMP280;50485;49.768;8.636;2022-08-19T11:23:38;99920.50;;;29.14
64184;BMP280;50485;49.768;8.636;2022-08-19T11:26:03;99911.13;;;29.12
64184;BMP280;50485;49.768;8.636;2022-08-19T11:28:28;99912.69;;;29.13
64184;BMP280;50485;49.768;8.636;2022-08-19T11:30:53;99900.63;;;29.19
64184;BMP280;50485;49.768;8.636;2022-08-19T11:33:19;99887.72;;;29.16
64184;BMP280;50485;49.768;8.636;2022-08-19T11:35:44;99894.19;;;29.22
64184;BMP280;50485;49.768;8.636;2022-08-19T11:38:09;99907.69;;;29.20
64184;BMP280;50485;49.768;8.636;2022-08-19T11:40:36;99915.06;;;29.23
64184;BMP280;50485;49.768;8.636;2022-08-19T11:43:02;99909.78;;;29.16
64184;BMP280;50485;49.768;8.636;2022-08-19T11:45:28;99908.34;;;29.12
64184;BMP280;50485;49.768;8.636;2022-08-19T11:47:54;99912.88;;;29.18
64184;BMP280;50485;49.768;8.636;2022-08-19T11:50:19;99897.78;;;29.10
64184;BMP280;50485;49.768;8.636;2022-08-19T11:52:45;99889.16;;;29.08
64184;BMP280;50485;49.768;8.636;2022-08-19T11:55:11;99903.81;;;29.18
64184;BMP280;50485;49.768;8.636;2022-08-19T11:57:36;99896.88;;;29.13
64184;BMP280;50485;49.768;8.636;2022-08-19T12:00:02;99894.78;;;29.17
64184;BMP280;50485;49.768;8.636;2022-08-19T12:02:29;99897.19;;;29.15
64184;BMP280;50485;49.768;8.636;2022-08-19T12:04:54;99902.38;;;29.13
64184;BMP280;50485;49.768;8.636;2022-08-19T12:07:19;99895.97;;;29.16
64184;BMP280;50485;49.768;8.636;2022-08-19T12:09:44;99895.66;;;29.14
64184;BMP280;50485;49.768;8.636;2022-08-19T12:12:11;99894.97;;;29.23
64184;BMP280;50485;49.768;8.636;2022-08-19T12:14:36;99889.47;;;29.23
64184;BMP280;50485;49.768;8.636;2022-08-19T12:17:01;99892.09;;;29.26
64184;BMP280;50485;49.768;8.636;2022-08-19T12:19:29;99888.66;;;29.22
64184;BMP280;50485;49.768;8.636;2022-08-19T12:21:57;99883.81;;;29.26
64184;BMP280;50485;49.768;8.636;2022-08-19T12:24:24;99885.91;;;29.22
64184;BMP280;50485;49.768;8.636;2022-08-19T12:26:49;99887.16;;;29.21
64184;BMP280;50485;49.768;8.636;2022-08-19T12:29:15;99890.53;;;29.25
64184;BMP280;50485;49.768;8.636;2022-08-19T12:31:40;99895.75;;;29.23
64184;BMP280;50485;49.768;8.636;2022-08-19T12:34:05;99892.66;;;29.21
64184;BMP280;50485;49.768;8.636;2022-08-19T12:36:31;99898.31;;;29.18
64184;BMP280;50485;49.768;8.636;2022-08-19T12:38:57;99895.53;;;29.18
64184;BMP280;50485;49.768;8.636;2022-08-19T12:41:22;99884.28;;;29.25
64184;BMP280;50485;49.768;8.636;2022-08-19T12:43:48;99891.78;;;29.24
64184;BMP280;50485;49.768;8.636;2022-08-19T12:46:14;99898.97;;;29.22
64184;BMP280;50485;49.768;8.636;2022-08-19T12:48:39;99887.34;;;29.27
64184;BMP280;50485;49.768;8.636;2022-08-19T12:51:08;99884.72;;;29.23
64184;BMP280;50485;49.768;8.636;2022-08-19T12:53:34;99880.84;;;29.21
64184;BMP280;50485;49.768;8.636;2022-08-19T12:55:59;99889.72;;;29.16
64184;BMP280;50485;49.768;8.636;2022-08-19T12:58:24;99899.69;;;29.22
64184;BMP280;50485;49.768;8.636;2022-08-19T13:00:50;99899.69;;;29.22
64184;BMP280;50485;49.768;8.636;2022-08-19T13:03:15;99898.19;;;29.21
64184;BMP280;50485;49.768;8.636;2022-08-19T13:05:40;99894.19;;;29.22
64184;BMP280;50485;49.768;8.636;2022-08-19T13:08:06;99889.03;;;29.24
64184;BMP280;50485;49.768;8.636;2022-08-19T13:10:32;99900.06;;;29.24
64184;BMP280;50485;49.768;8.636;2022-08-19T13:13:01;99896.31;;;29.18
64184;BMP280;50485;49.768;8.636;2022-08-19T13:15:26;99904.72;;;29.15
64184;BMP280;50485;49.768;8.636;2022-08-19T13:17:53;99910.88;;;29.19
64184;BMP280;50485;49.768;8.636;2022-08-19T13:20:19;99905.22;;;29.22
64184;BMP280;50485;49.768;8.636;2022-08-19T13:22:44;99894.00;;;29.17
64184;BMP280;50485;49.768;8.636;2022-08-19T13:25:11;99897.53;;;29.17
64184;BMP280;50485;49.768;8.636;2022-08-19T13:27:37;99893.88;;;29.20
64184;BMP280;50485;49.768;8.636;2022-08-19T13:30:03;99904.03;;;29.23
64184;BMP280;50485;49.768;8.636;2022-08-19T13:32:46;99896.94;;;29.22
64184;BMP280;50485;49.768;8.636;2022-08-19T13:35:30;99900.84;;;29.25
64184;BMP280;50485;49.768;8.636;2022-08-19T13:37:55;99903.59;;;29.25
64184;BMP280;50485;49.768;8.636;2022-08-19T13:40:22;99898.81;;;29.25
64184;BMP280;50485;49.768;8.636;2022-08-19T13:42:49;99902.34;;;29.26
64184;BMP280;50485;49.768;8.636;2022-08-19T13:45:16;99900.94;;;29.21
64184;BMP280;50485;49.768;8.636;2022-08-19T13:47:44;99905.09;;;29.26
64184;BMP280;50485;49.768;8.636;2022-08-19T13:50:13;99895.31;;;29.25
64184;BMP280;50485;49.768;8.636;2022-08-19T13:52:39;99889.34;;;29.26
64184;BMP280;50485;49.768;8.636;2022-08-19T13:55:05;99885.00;;;29.25
64184;BMP280;50485;49.768;8.636;2022-08-19T13:57:30;99892.66;;;29.21
64184;BMP280;50485;49.768;8.636;2022-08-19T13:59:56;99889.03;;;29.24
64184;BMP280;50485;49.768;8.636;2022-08-19T14:02:22;99898.06;;;29.25
64184;BMP280;50485;49.768;8.636;2022-08-19T14:04:47;99894.19;;;29.22
64184;BMP280;50485;49.768;8.636;2022-08-19T14:07:13;99904.03;;;29.23
64184;BMP280;50485;49.768;8.636;2022-08-19T14:09:39;99900.06;;;29.24
64184;BMP280;50485;49.768;8.636;2022-08-19T14:12:04;99884.72;;;29.23
64184;BMP280;50485;49.768;8.636;2022-08-19T14:14:29;99886.47;;;29.30